createdAt,value
2023-04-08T12:40:39.996Z,102152.31
2023-04-08T12:43:10.240Z,102154.09
2023-04-08T12:45:37.169Z,102151.00
2023-04-08T12:48:04.130Z,102141.31
2023-04-08T12:50:31.096Z,102140.25
2023-04-08T12:52:58.500Z,102140.69
2023-04-08T12:55:25.475Z,102138.06
2023-04-08T12:57:52.983Z,102133.38
2023-04-08T13:00:19.941Z,102138.44
2023-04-08T13:02:47.088Z,102141.88
2023-04-08T13:05:14.127Z,102133.03
2023-04-08T13:07:41.609Z,102136.38
2023-04-08T13:10:09.358Z,102141.53
2023-04-08T13:12:36.135Z,102129.97
2023-04-08T13:15:02.957Z,102127.78
2023-04-08T13:17:29.712Z,102142.13
2023-04-08T13:19:56.508Z,102142.63
2023-04-08T13:22:23.290Z,102135.44
2023-04-08T13:24:50.050Z,102130.69
2023-04-08T13:27:16.794Z,102131.28
2023-04-08T13:29:43.639Z,102126.72
2023-04-08T13:32:14.581Z,102131.34
2023-04-08T13:34:42.714Z,102118.28
2023-04-08T13:37:09.632Z,102127.84
2023-04-08T13:39:36.440Z,102131.94
2023-04-08T13:42:03.276Z,102125.09
2023-04-08T13:44:30.151Z,102131.28
2023-04-08T13:46:56.895Z,102125.09
2023-04-08T13:49:23.991Z,102125.31
2023-04-08T13:51:51.068Z,102116.06
2023-04-08T13:54:18.104Z,102120.19
2023-04-08T13:56:44.931Z,102112.59
2023-04-08T13:59:11.680Z,102115.81
2023-04-08T14:01:40.878Z,102109.34
2023-04-08T14:04:07.753Z,102113.97
2023-04-08T14:06:36.368Z,102104.44
2023-04-08T14:09:03.268Z,102119.47
2023-04-08T14:11:30.118Z,102113.75
2023-04-08T14:13:57.072Z,102116.25
2023-04-08T14:16:23.822Z,102122.78
2023-04-08T14:18:51.249Z,102119.75
2023-04-08T14:21:18.947Z,102117.69
2023-04-08T14:23:47.067Z,102114.22
2023-04-08T14:26:13.912Z,102117.81
2023-04-08T14:28:40.784Z,102119.44
2023-04-08T14:31:07.743Z,102112.94
2023-04-08T14:33:34.606Z,102110.94
2023-04-08T14:36:01.561Z,102110.81
2023-04-08T14:38:28.370Z,102116.94
2023-04-08T14:40:55.223Z,102121.94
2023-04-08T14:43:22.045Z,102108.91
2023-04-08T14:45:50.410Z,102115.69
2023-04-08T14:48:19.286Z,102109.22
2023-04-08T14:50:46.768Z,102110.13
2023-04-08T14:53:13.770Z,102103.94
2023-04-08T14:55:41.177Z,102109.81
2023-04-08T14:58:08.067Z,102109.22
2023-04-08T15:00:34.930Z,102107.03
2023-04-08T15:03:01.830Z,102104.88
2023-04-08T15:05:28.878Z,102106.97
2023-04-08T15:07:55.825Z,102111.91
2023-04-08T15:10:22.755Z,102109.03
2023-04-08T15:12:49.624Z,102109.22
2023-04-08T15:15:16.756Z,102115.00
2023-04-08T15:17:43.627Z,102112.63
2023-04-08T15:20:11.189Z,102116.78
2023-04-08T15:22:37.991Z,102112.09
2023-04-08T15:25:05.729Z,102104.66
2023-04-08T15:27:33.238Z,102112.13
2023-04-08T15:30:00.052Z,102101.19
2023-04-08T15:32:27.490Z,102110.41
2023-04-08T15:34:54.580Z,102100.50
2023-04-08T15:37:22.922Z,102102.78
2023-04-08T15:39:49.668Z,102103.84
2023-04-08T15:42:16.638Z,102107.72
2023-04-08T15:44:44.475Z,102104.22
2023-04-08T15:47:11.490Z,102106.81
2023-04-08T15:49:39.078Z,102107.41
2023-04-08T15:52:07.282Z,102110.06
2023-04-08T15:54:34.574Z,102115.97
2023-04-08T15:57:04.426Z,102118.63
2023-04-08T15:59:31.687Z,102118.31
2023-04-08T16:01:59.005Z,102119.78
2023-04-08T16:04:25.902Z,102115.06
2023-04-08T16:06:52.836Z,102117.88
2023-04-08T16:09:25.579Z,102119.59
2023-04-08T16:11:53.235Z,102116.84
2023-04-08T16:14:20.214Z,102116.66
2023-04-08T16:16:47.448Z,102120.81
2023-04-08T16:19:14.521Z,102130.81
2023-04-08T16:21:41.674Z,102123.00
2023-04-08T16:24:08.652Z,102119.34
2023-04-08T16:26:35.404Z,102127.88
